J. George Betz — WDC7596 — position and weather

sailwx.info

Track history (hours):
 
Tides and Currents Weather Stations Pressure Air Temp Water Temp Dewpoint Dewpoint Depression Visibility Wind Speed Wind Dir Waves Ship Positions

J. George Betz

Owner: Tug J. George Betz, Melville, NY. More information available from US FCC via Universal Licensing System and Coast Guard Vessel Documentation Center.

Last reported at 2017-Nov-18 04:44 UTC. Time now 2017-Nov-18 08:57 UTC.
Position N 39°13' W 076°15'.

Length 176 m; draft 7.4 m.

Type: Ship. MMSI: 367073820.

Date/timePositionNaut miles runAvg speedWind from/ knotsBaromVisibWave heightAir tempDewpointWater temp
2017-Nov-18 04:44N 39°13' W 076°15'2 9.3
2017-Nov-18 04:29N 39°15' W 076°14'5 9.2
2017-Nov-18 03:58N 39°20' W 076°12'5 9.4
2017-Nov-18 03:28N 39°22' W 076°07'4 8.9
2017-Nov-18 03:01N 39°24' W 076°03'4 8.5
2017-Nov-18 02:31N 39°27' W 075°59'4 8.1
2017-Nov-18 02:00N 39°30' W 075°55'4 7.4
2017-Nov-18 01:31N 39°32' W 075°51'3 6.9
2017-Nov-18 01:00N 39°32' W 075°46'3 6.9
2017-Nov-18 00:30N 39°33' W 075°42'3 6.7
2017-Nov-18 00:01N 39°33' W 075°38'3 6.9
2017-Nov-17 23:30N 39°34' W 075°33'3 5.9
2017-Nov-17 23:01N 39°37' W 075°35'3 5.1
2017-Nov-17 22:31N 39°39' W 075°33'3 5.6
2017-Nov-17 22:01N 39°41' W 075°31'3 6.8
2017-Nov-17 21:30N 39°45' W 075°30'3 6.8
2017-Nov-17 21:01N 39°47' W 075°27'4 7.1
2017-Nov-17 20:31N 39°49' W 075°23'4 8.1
2017-Nov-17 20:00N 39°51' W 075°19'4 7.6
2017-Nov-17 19:30N 39°52' W 075°14'3 5.4
2017-Nov-17 19:00N 39°53' W 075°11'3 5.9
2017-Nov-17 18:30N 39°51' W 075°14'5 9.0
2017-Nov-17 18:01N 39°51' W 075°20'4 8.1
2017-Nov-17 17:31N 39°49' W 075°24'0 0.0
2017-Nov-17 17:01N 39°49' W 075°24'0 0.0
2017-Nov-17 16:31N 39°49' W 075°24'0 0.0
2017-Nov-17 15:56N 39°49' W 075°24'0 0.0
2017-Nov-17 15:29N 39°49' W 075°24'0 0.0
2017-Nov-17 14:59N 39°49' W 075°24'0 0.0
2017-Nov-17 14:29N 39°49' W 075°24'0 0.0
2017-Nov-17 13:59N 39°49' W 075°24'0 0.0
2017-Nov-17 13:29N 39°49' W 075°24'0 0.0
2017-Nov-17 12:50N 39°49' W 075°24'0 0.0
2017-Nov-17 12:29N 39°49' W 075°24'0 0.0
2017-Nov-17 11:59N 39°49' W 075°24'0 0.0
2017-Nov-17 11:26N 39°49' W 075°24'0 0.0
2017-Nov-17 10:59N 39°49' W 075°24'0 0.0
2017-Nov-17 10:29N 39°49' W 075°24'0 0.0
2017-Nov-17 09:59N 39°49' W 075°24'0 0.0
2017-Nov-17 09:29N 39°49' W 075°24'0 0.0
2017-Nov-17 08:59N 39°49' W 075°24'0 0.0
2017-Nov-17 08:26N 39°49' W 075°24'0 0.0
2017-Nov-17 07:59N 39°49' W 075°24'0 0.0
2017-Nov-17 07:29N 39°49' W 075°24'0 0.0
2017-Nov-17 06:59N 39°49' W 075°24'0 0.0
2017-Nov-17 06:29N 39°49' W 075°24'0 0.0
2017-Nov-17 05:59N 39°49' W 075°24'0 0.0
2017-Nov-17 05:29N 39°49' W 075°24'0 0.0
2017-Nov-17 04:59N 39°49' W 075°24'0 0.0
2017-Nov-17 04:29N 39°49' W 075°24'0 0.0
2017-Nov-17 04:00N 39°49' W 075°24'0 0.0
2017-Nov-17 03:30N 39°49' W 075°24'0 0.0
2017-Nov-17 03:00N 39°49' W 075°24'0 0.0
2017-Nov-17 02:30N 39°49' W 075°24'0 0.0
2017-Nov-17 02:00N 39°49' W 075°24'0 0.0
2017-Nov-17 01:30N 39°49' W 075°24'0 0.0
2017-Nov-17 01:00N 39°49' W 075°24'0 0.0
2017-Nov-17 00:30N 39°49' W 075°24'0 0.0
2017-Nov-17 00:00N 39°49' W 075°24'0 0.0
2017-Nov-16 23:30N 39°49' W 075°24'0 0.0
2017-Nov-16 23:00N 39°49' W 075°24'0 0.0
2017-Nov-16 22:30N 39°49' W 075°24'0 0.4
2017-Nov-16 22:01N 39°49' W 075°24'5 9.5
2017-Nov-16 21:30N 39°51' W 075°19'5 9.4
2017-Nov-16 21:00N 39°52' W 075°13'0 0.3
2017-Nov-16 20:30N 39°52' W 075°13'0 0.0
2017-Nov-16 20:01N 39°52' W 075°13'0 0.1
2017-Nov-16 19:29N 39°52' W 075°13'0 0.2
2017-Nov-16 18:56N 39°52' W 075°13'0 0.1
2017-Nov-16 18:29N 39°52' W 075°13'0 0.1
2017-Nov-16 17:59N 39°52' W 075°13'0 0.0
2017-Nov-16 17:29N 39°52' W 075°13'0 0.0
2017-Nov-16 16:59N 39°52' W 075°13'0 0.0
2017-Nov-16 16:30N 39°52' W 075°13'0 0.1
2017-Nov-16 16:01N 39°52' W 075°13'0 0.0
2017-Nov-16 15:30N 39°52' W 075°13'0 0.0
2017-Nov-16 15:00N 39°52' W 075°13'0 0.0
2017-Nov-16 14:30N 39°52' W 075°13'0 0.0
2017-Nov-16 14:00N 39°52' W 075°13'0 0.0
2017-Nov-16 13:30N 39°52' W 075°13'0 0.0
2017-Nov-16 13:01N 39°52' W 075°13'0 0.0
2017-Nov-16 12:30N 39°52' W 075°13'1 1.6
2017-Nov-16 12:00N 39°52' W 075°14'4 8.8
2017-Nov-16 11:31N 39°51' W 075°19'4 8.1
2017-Nov-16 11:00N 39°49' W 075°24'0 0.8
2017-Nov-16 10:30N 39°49' W 075°24'0 0.0
2017-Nov-16 10:00N 39°49' W 075°24'0 0.0
2017-Nov-16 09:29N 39°49' W 075°24'0 0.0
2017-Nov-16 08:59N 39°49' W 075°24'0 0.0
2017-Nov-16 08:29N 39°49' W 075°24'0 0.0
2017-Nov-16 07:59N 39°49' W 075°24'0 0.0
2017-Nov-16 07:29N 39°49' W 075°24'0 0.0
2017-Nov-16 06:59N 39°49' W 075°24'0 0.0
2017-Nov-16 06:29N 39°49' W 075°24'0 0.0
2017-Nov-16 05:59N 39°49' W 075°24'0 0.0
2017-Nov-16 05:29N 39°49' W 075°24'0 0.0
2017-Nov-16 04:59N 39°49' W 075°24'0 0.0
2017-Nov-16 04:29N 39°49' W 075°24'0 0.0
2017-Nov-16 03:56N 39°49' W 075°24'0 0.0
2017-Nov-16 03:29N 39°49' W 075°24'0 0.0
2017-Nov-16 02:59N 39°49' W 075°24'0 0.0
2017-Nov-16 02:29N 39°49' W 075°24'0 0.0
2017-Nov-16 01:59N 39°49' W 075°24'0 0.0
2017-Nov-16 01:23N 39°49' W 075°24'0 0.0
2017-Nov-16 00:59N 39°49' W 075°24'0 0.0
2017-Nov-16 00:26N 39°49' W 075°24'0 0.0
2017-Nov-15 23:59N 39°49' W 075°24'0 0.0
2017-Nov-15 23:29N 39°49' W 075°24'0 0.0
2017-Nov-15 22:56N 39°49' W 075°24'0 0.0
2017-Nov-15 22:31N 39°49' W 075°24'0 0.0
2017-Nov-15 22:00N 39°49' W 075°24'1 1.4
2017-Nov-15 21:30N 39°48' W 075°25'0 0.9
2017-Nov-15 21:00N 39°48' W 075°26'2 4.5
2017-Nov-15 20:30N 39°49' W 075°23'4 7.7
2017-Nov-15 20:00N 39°51' W 075°18'4 7.9
2017-Nov-15 19:30N 39°52' W 075°13'4 8.1
2017-Nov-15 19:00N 39°53' W 075°08'2 3.9
2017-Nov-15 18:30N 39°55' W 075°08'0 0.1
2017-Nov-15 17:59N 39°55' W 075°08'0 0.2
2017-Nov-15 17:29N 39°55' W 075°08'0 0.2
2017-Nov-15 16:59N 39°55' W 075°08'0 0.1
2017-Nov-15 16:29N 39°55' W 075°08'0 0.0
2017-Nov-15 15:59N 39°55' W 075°08'0 0.0
2017-Nov-15 15:29N 39°55' W 075°08'0 0.0
2017-Nov-15 14:59N 39°55' W 075°08'0 0.0
2017-Nov-15 14:29N 39°55' W 075°08'0 0.0
2017-Nov-15 13:59N 39°55' W 075°08'0 0.0
2017-Nov-15 13:29N 39°55' W 075°08'0 0.0
2017-Nov-15 12:59N 39°55' W 075°08'0 0.0
2017-Nov-15 12:29N 39°55' W 075°08'0 0.2
2017-Nov-15 11:59N 39°55' W 075°08'0 0.2
2017-Nov-15 11:29N 39°55' W 075°08'0 0.1
2017-Nov-15 10:59N 39°55' W 075°08'0 0.0
2017-Nov-15 10:29N 39°55' W 075°08'0 0.0
2017-Nov-15 09:59N 39°55' W 075°08'0 0.0
2017-Nov-15 09:26N 39°55' W 075°08'0 0.0
2017-Nov-15 08:59N 39°55' W 075°08'0 0.0
2017-Nov-15 08:29N 39°55' W 075°08'0 0.0
2017-Nov-15 07:59N 39°55' W 075°08'0 0.0
2017-Nov-15 07:26N 39°55' W 075°08'0 0.0
2017-Nov-15 06:59N 39°55' W 075°08'0 0.0
2017-Nov-15 06:29N 39°55' W 075°08'0 0.0
2017-Nov-15 05:59N 39°55' W 075°08'0 0.0
2017-Nov-15 05:29N 39°55' W 075°08'0 0.2
2017-Nov-15 04:59N 39°55' W 075°08'0 0.2
2017-Nov-15 04:29N 39°55' W 075°08'0 0.0
2017-Nov-15 03:59N 39°55' W 075°08'0 0.0
2017-Nov-15 03:29N 39°55' W 075°08'0 0.0
2017-Nov-15 02:59N 39°55' W 075°08'0 0.0
2017-Nov-15 02:29N 39°55' W 075°08'0 0.0
2017-Nov-15 01:59N 39°55' W 075°08'0 0.0
2017-Nov-15 01:29N 39°55' W 075°08'0 0.0
2017-Nov-15 00:59N 39°55' W 075°08'0 0.0
2017-Nov-15 00:29N 39°55' W 075°08'0 0.0
2017-Nov-14 23:59N 39°55' W 075°08'0 0.3
2017-Nov-14 23:29N 39°55' W 075°08'0 0.2
2017-Nov-14 22:59N 39°55' W 075°08'0 0.1
2017-Nov-14 22:29N 39°55' W 075°08'0 0.0
2017-Nov-14 21:59N 39°55' W 075°08'0 0.0
2017-Nov-14 21:29N 39°55' W 075°08'0 0.0
2017-Nov-14 20:59N 39°55' W 075°08'0 0.0
2017-Nov-14 20:26N 39°55' W 075°08'0 0.0
2017-Nov-14 19:59N 39°55' W 075°08'0 0.0
2017-Nov-14 19:29N 39°55' W 075°08'0 0.0
2017-Nov-14 18:59N 39°55' W 075°08'0 0.0
2017-Nov-14 18:26N 39°55' W 075°08'0 0.0
2017-Nov-14 17:59N 39°55' W 075°08'0 0.0
2017-Nov-14 17:28N 39°55' W 075°08'0 0.0
2017-Nov-14 16:58N 39°55' W 075°08'0 0.3
2017-Nov-14 16:28N 39°55' W 075°08'0 0.2
2017-Nov-14 15:58N 39°55' W 075°08'0 0.0
2017-Nov-14 15:28N 39°55' W 075°08'0 0.0
2017-Nov-14 14:59N 39°55' W 075°08'0 0.0
2017-Nov-14 14:28N 39°55' W 075°08'0 0.0
2017-Nov-14 13:56N 39°55' W 075°08'0 0.0
2017-Nov-14 13:29N 39°55' W 075°08'0 0.0
2017-Nov-14 12:59N 39°55' W 075°08'0 0.0
2017-Nov-14 12:28N 39°55' W 075°08'0 0.0
2017-Nov-14 11:58N 39°55' W 075°08'0 0.1
2017-Nov-14 11:29N 39°55' W 075°08'0 0.4
2017-Nov-14 10:59N 39°55' W 075°08'0 0.1
2017-Nov-14 10:29N 39°55' W 075°08'0 0.0
2017-Nov-14 09:59N 39°55' W 075°08'0 0.0
2017-Nov-14 09:29N 39°55' W 075°08'0 0.0
2017-Nov-14 08:58N 39°55' W 075°08'0 0.0
2017-Nov-14 08:28N 39°55' W 075°08'0 0.0
2017-Nov-14 07:58N 39°55' W 075°08'0 0.0
2017-Nov-14 07:28N 39°55' W 075°08'0 0.0
2017-Nov-14 06:58N 39°55' W 075°08'0 0.0
2017-Nov-14 06:29N 39°55' W 075°08'0 0.0
2017-Nov-14 05:59N 39°55' W 075°08'0 0.0
2017-Nov-14 05:29N 39°55' W 075°08'0 0.0
2017-Nov-14 04:59N 39°55' W 075°08'0 0.1
2017-Nov-14 04:29N 39°55' W 075°08'0 0.3
2017-Nov-14 03:59N 39°55' W 075°08'0 0.1
2017-Nov-14 03:29N 39°55' W 075°08'0 0.0
2017-Nov-14 02:59N 39°55' W 075°08'0 0.0
2017-Nov-14 02:29N 39°55' W 075°08'0 0.0
2017-Nov-14 01:59N 39°55' W 075°08'0 0.0
2017-Nov-14 01:29N 39°55' W 075°08'0 0.0
2017-Nov-14 00:59N 39°55' W 075°08'0 0.0
2017-Nov-14 00:28N 39°55' W 075°08'0 0.0
2017-Nov-13 23:59N 39°55' W 075°08'0 0.0
2017-Nov-13 23:29N 39°55' W 075°08'0 0.1
2017-Nov-13 22:58N 39°55' W 075°08'0 0.4
2017-Nov-13 22:29N 39°55' W 075°08'0 0.1
2017-Nov-13 21:58N 39°55' W 075°08'14 0.7
2017-Nov-13 02:00N 39°49' W 075°24'0 0.0
2017-Nov-13 01:30N 39°49' W 075°24'0 0.0
2017-Nov-13 01:00N 39°49' W 075°24'0 0.0
2017-Nov-13 00:30N 39°49' W 075°24'0 0.0
2017-Nov-13 00:00N 39°49' W 075°24'0 0.0
2017-Nov-12 23:27N 39°49' W 075°24'0 0.0
2017-Nov-12 22:57N 39°49' W 075°24'0 0.0
2017-Nov-12 22:30N 39°49' W 075°24'0 0.0
2017-Nov-12 22:00N 39°49' W 075°24'0 0.0
2017-Nov-12 21:31N 39°49' W 075°24'1 1.5
2017-Nov-12 21:00N 39°49' W 075°23'2 3.2
2017-Nov-12 20:31N 39°48' W 075°25'3 6.7
2017-Nov-12 20:00N 39°46' W 075°29'4 8.1
2017-Nov-12 19:31N 39°42' W 075°31'4 7.9
2017-Nov-12 19:01N 39°39' W 075°33'3 6.6
2017-Nov-12 18:31N 39°36' W 075°34'3 5.6
2017-Nov-12 18:01N 39°33' W 075°36'4 9.0
2017-Nov-12 17:30N 39°33' W 075°42'4 8.7
2017-Nov-12 17:00N 39°32' W 075°47'4 7.5
2017-Nov-12 16:31N 39°32' W 075°52'4 7.7
2017-Nov-12 16:01N 39°29' W 075°56'4 7.7
2017-Nov-12 15:30N 39°27' W 075°60'7 7.3
2017-Nov-12 14:30N 39°22' W 076°07'4 7.1
2017-Nov-12 13:59N 39°20' W 076°11'22 6.7
2017-Nov-12 10:41N 39°00' W 076°23'106 2.8
2017-Nov-10 21:37N 37°14' W 076°22'3 8.7
2017-Nov-10 21:20N 37°14' W 076°19'3 8.7
2017-Nov-10 21:00N 37°12' W 076°16'4 8.4
2017-Nov-10 20:30N 37°09' W 076°12'119 9.3
2017-Nov-10 07:41N 39°08' W 076°19'4 9.4
2017-Nov-10 07:13N 39°12' W 076°16'2 9.2
2017-Nov-10 07:00N 39°14' W 076°15'4 8.8
2017-Nov-10 06:30N 39°18' W 076°14'4 7.7
2017-Nov-10 05:59N 39°21' W 076°10'3 6.0
2017-Nov-10 05:30N 39°22' W 076°07'1 0.2
2017-Nov-10 02:19N 39°23' W 076°07'0 0.1
2017-Nov-10 01:58N 39°23' W 076°07'0 0.2
2017-Nov-10 01:28N 39°23' W 076°07'0 0.2
2017-Nov-09 23:46N 39°23' W 076°07'1 4.7
2017-Nov-09 23:30N 39°23' W 076°05'5 9.4
2017-Nov-09 23:00N 39°26' W 076°00'510.1
2017-Nov-09 22:30N 39°30' W 075°56'510.2
2017-Nov-09 22:00N 39°32' W 075°50'4 8.7
2017-Nov-09 21:30N 39°32' W 075°44'510.5
2017-Nov-09 21:00N 39°33' W 075°38'4 7.3
2017-Nov-09 20:31N 39°33' W 075°33'0 0.1
2017-Nov-09 20:00N 39°33' W 075°33'0 0.1
2017-Nov-09 19:30N 39°33' W 075°33'0 0.0
2017-Nov-09 18:58N 39°33' W 075°33'0 0.0
2017-Nov-09 18:28N 39°33' W 075°33'0 0.0
2017-Nov-09 17:58N 39°33' W 075°33'0 0.0
2017-Nov-09 17:28N 39°33' W 075°33'0 0.0
2017-Nov-09 16:58N 39°33' W 075°33'0 0.0
2017-Nov-09 16:28N 39°33' W 075°33'0 0.4
2017-Nov-09 15:58N 39°33' W 075°33'0 0.1
2017-Nov-09 15:28N 39°33' W 075°33'0 0.0
2017-Nov-09 14:58N 39°33' W 075°33'0 0.0
2017-Nov-09 14:28N 39°33' W 075°33'0 0.0
2017-Nov-09 13:58N 39°33' W 075°33'0 0.0
2017-Nov-09 13:28N 39°33' W 075°33'0 0.0
2017-Nov-09 12:58N 39°33' W 075°33'0 0.0
2017-Nov-09 12:28N 39°33' W 075°33'0 0.0
2017-Nov-09 11:58N 39°33' W 075°33'0 0.0
2017-Nov-09 11:28N 39°33' W 075°33'0 0.0
2017-Nov-09 10:58N 39°33' W 075°33'0 0.0
2017-Nov-09 10:28N 39°33' W 075°33'0 0.2
2017-Nov-09 09:58N 39°33' W 075°33'0 0.3
2017-Nov-09 09:28N 39°33' W 075°33'0 0.1
2017-Nov-09 08:58N 39°33' W 075°33'0 0.0
2017-Nov-09 08:28N 39°33' W 075°33'0 0.0
2017-Nov-09 07:58N 39°33' W 075°33'0 0.0
2017-Nov-09 07:28N 39°33' W 075°33'0 0.0
2017-Nov-09 06:58N 39°33' W 075°33'0 0.0
2017-Nov-09 06:28N 39°33' W 075°33'0 0.0
2017-Nov-09 06:00N 39°33' W 075°33'0 0.5
2017-Nov-09 05:30N 39°33' W 075°33'1 1.2
2017-Nov-09 05:00N 39°34' W 075°33'0 0.0
2017-Nov-09 04:30N 39°34' W 075°33'0 0.0
2017-Nov-09 04:00N 39°34' W 075°33'0 0.0
2017-Nov-09 03:30N 39°34' W 075°33'0 0.0
2017-Nov-09 03:00N 39°34' W 075°33'0 0.0
2017-Nov-09 02:30N 39°34' W 075°33'0 0.0
2017-Nov-09 02:00N 39°34' W 075°33'0 0.0
2017-Nov-09 01:30N 39°34' W 075°33'0 0.0
2017-Nov-09 01:00N 39°34' W 075°33'0 0.0
2017-Nov-09 00:30N 39°34' W 075°33'0 0.0
2017-Nov-09 00:00N 39°34' W 075°33'0 0.0
2017-Nov-08 23:30N 39°34' W 075°33'0 0.0
2017-Nov-08 23:00N 39°34' W 075°33'1 1.3
2017-Nov-08 22:30N 39°34' W 075°33'4 7.9
2017-Nov-08 22:00N 39°37' W 075°35'4 8.5
2017-Nov-08 21:30N 39°41' W 075°31'4 7.9
2017-Nov-08 21:00N 39°44' W 075°30'3 5.3
2017-Nov-08 20:30N 39°47' W 075°28'3 6.9
2017-Nov-08 20:00N 39°49' W 075°24'0 0.3
2017-Nov-08 19:30N 39°49' W 075°24'0 0.9
2017-Nov-08 19:00N 39°49' W 075°24'510.2
2017-Nov-08 18:30N 39°51' W 075°18'510.1
2017-Nov-08 18:00N 39°53' W 075°12'1 1.1
2017-Nov-08 17:30N 39°53' W 075°12'0 0.0
2017-Nov-08 17:00N 39°53' W 075°12'0 0.0
2017-Nov-08 16:30N 39°53' W 075°12'0 0.0
2017-Nov-08 16:00N 39°53' W 075°12'0 0.1
2017-Nov-08 15:30N 39°53' W 075°12'0 0.0
2017-Nov-08 15:01N 39°53' W 075°12'0 0.0
2017-Nov-08 14:30N 39°53' W 075°12'0 0.0
2017-Nov-08 14:01N 39°53' W 075°12'0 0.0
2017-Nov-08 13:31N 39°53' W 075°12'0 0.0
2017-Nov-08 13:01N 39°53' W 075°12'0 0.0
2017-Nov-08 12:31N 39°53' W 075°12'0 0.0
2017-Nov-08 12:00N 39°53' W 075°12'0 0.1
2017-Nov-08 11:30N 39°53' W 075°12'0 0.0
2017-Nov-08 11:00N 39°53' W 075°12'0 0.0
2017-Nov-08 10:30N 39°53' W 075°12'0 0.0
2017-Nov-08 10:00N 39°53' W 075°12'0 0.0
2017-Nov-08 09:30N 39°53' W 075°12'0 0.0
2017-Nov-08 09:00N 39°53' W 075°12'0 0.0
2017-Nov-08 08:30N 39°53' W 075°12'0 0.0
2017-Nov-08 08:00N 39°53' W 075°12'2 4.7
2017-Nov-08 07:30N 39°52' W 075°14'510.3
2017-Nov-08 07:00N 39°51' W 075°20'4 7.5
2017-Nov-08 06:30N 39°49' W 075°24'0 0.0
2017-Nov-08 06:00N 39°49' W 075°24'0 0.1
2017-Nov-08 05:30N 39°49' W 075°24'2 3.5
2017-Nov-08 05:00N 39°50' W 075°22'  
Track history (hours):
 
Tides and Currents Weather Stations Pressure Air Temp Water Temp Dewpoint Dewpoint Depression Visibility Wind Speed Wind Dir Waves Ship Positions

J. George Betz

Owner: Tug J. George Betz, Melville, NY. More information available from US FCC via Universal Licensing System and Coast Guard Vessel Documentation Center.

Last reported at 2017-Nov-18 04:44 UTC. Time now 2017-Nov-18 08:57 UTC.
Position N 39°13' W 076°15'.

Length 176 m; draft 7.4 m.

Type: Ship. MMSI: 367073820.

Date/timePositionNaut miles runAvg speedWind from/ knotsBaromVisibWave heightAir tempDewpointWater temp
2017-Nov-18 04:44N 39°13' W 076°15'2 9.3
2017-Nov-18 04:29N 39°15' W 076°14'5 9.2
2017-Nov-18 03:58N 39°20' W 076°12'5 9.4
2017-Nov-18 03:28N 39°22' W 076°07'4 8.9
2017-Nov-18 03:01N 39°24' W 076°03'4 8.5
2017-Nov-18 02:31N 39°27' W 075°59'4 8.1
2017-Nov-18 02:00N 39°30' W 075°55'4 7.4
2017-Nov-18 01:31N 39°32' W 075°51'3 6.9
2017-Nov-18 01:00N 39°32' W 075°46'3 6.9
2017-Nov-18 00:30N 39°33' W 075°42'3 6.7
2017-Nov-18 00:01N 39°33' W 075°38'3 6.9
2017-Nov-17 23:30N 39°34' W 075°33'3 5.9
2017-Nov-17 23:01N 39°37' W 075°35'3 5.1
2017-Nov-17 22:31N 39°39' W 075°33'3 5.6
2017-Nov-17 22:01N 39°41' W 075°31'3 6.8
2017-Nov-17 21:30N 39°45' W 075°30'3 6.8
2017-Nov-17 21:01N 39°47' W 075°27'4 7.1
2017-Nov-17 20:31N 39°49' W 075°23'4 8.1
2017-Nov-17 20:00N 39°51' W 075°19'4 7.6
2017-Nov-17 19:30N 39°52' W 075°14'3 5.4
2017-Nov-17 19:00N 39°53' W 075°11'3 5.9
2017-Nov-17 18:30N 39°51' W 075°14'5 9.0
2017-Nov-17 18:01N 39°51' W 075°20'4 8.1
2017-Nov-17 17:31N 39°49' W 075°24'0 0.0
2017-Nov-17 17:01N 39°49' W 075°24'0 0.0
2017-Nov-17 16:31N 39°49' W 075°24'0 0.0
2017-Nov-17 15:56N 39°49' W 075°24'0 0.0
2017-Nov-17 15:29N 39°49' W 075°24'0 0.0
2017-Nov-17 14:59N 39°49' W 075°24'0 0.0
2017-Nov-17 14:29N 39°49' W 075°24'0 0.0
2017-Nov-17 13:59N 39°49' W 075°24'0 0.0
2017-Nov-17 13:29N 39°49' W 075°24'0 0.0
2017-Nov-17 12:50N 39°49' W 075°24'0 0.0
2017-Nov-17 12:29N 39°49' W 075°24'0 0.0
2017-Nov-17 11:59N 39°49' W 075°24'0 0.0
2017-Nov-17 11:26N 39°49' W 075°24'0 0.0
2017-Nov-17 10:59N 39°49' W 075°24'0 0.0
2017-Nov-17 10:29N 39°49' W 075°24'0 0.0
2017-Nov-17 09:59N 39°49' W 075°24'0 0.0
2017-Nov-17 09:29N 39°49' W 075°24'0 0.0
2017-Nov-17 08:59N 39°49' W 075°24'0 0.0
2017-Nov-17 08:26N 39°49' W 075°24'0 0.0
2017-Nov-17 07:59N 39°49' W 075°24'0 0.0
2017-Nov-17 07:29N 39°49' W 075°24'0 0.0
2017-Nov-17 06:59N 39°49' W 075°24'0 0.0
2017-Nov-17 06:29N 39°49' W 075°24'0 0.0
2017-Nov-17 05:59N 39°49' W 075°24'0 0.0
2017-Nov-17 05:29N 39°49' W 075°24'0 0.0
2017-Nov-17 04:59N 39°49' W 075°24'0 0.0
2017-Nov-17 04:29N 39°49' W 075°24'0 0.0
2017-Nov-17 04:00N 39°49' W 075°24'0 0.0
2017-Nov-17 03:30N 39°49' W 075°24'0 0.0
2017-Nov-17 03:00N 39°49' W 075°24'0 0.0
2017-Nov-17 02:30N 39°49' W 075°24'0 0.0
2017-Nov-17 02:00N 39°49' W 075°24'0 0.0
2017-Nov-17 01:30N 39°49' W 075°24'0 0.0
2017-Nov-17 01:00N 39°49' W 075°24'0 0.0
2017-Nov-17 00:30N 39°49' W 075°24'0 0.0
2017-Nov-17 00:00N 39°49' W 075°24'0 0.0
2017-Nov-16 23:30N 39°49' W 075°24'0 0.0
2017-Nov-16 23:00N 39°49' W 075°24'0 0.0
2017-Nov-16 22:30N 39°49' W 075°24'0 0.4
2017-Nov-16 22:01N 39°49' W 075°24'5 9.5
2017-Nov-16 21:30N 39°51' W 075°19'5 9.4
2017-Nov-16 21:00N 39°52' W 075°13'0 0.3
2017-Nov-16 20:30N 39°52' W 075°13'0 0.0
2017-Nov-16 20:01N 39°52' W 075°13'0 0.1
2017-Nov-16 19:29N 39°52' W 075°13'0 0.2
2017-Nov-16 18:56N 39°52' W 075°13'0 0.1
2017-Nov-16 18:29N 39°52' W 075°13'0 0.1
2017-Nov-16 17:59N 39°52' W 075°13'0 0.0
2017-Nov-16 17:29N 39°52' W 075°13'0 0.0
2017-Nov-16 16:59N 39°52' W 075°13'0 0.0
2017-Nov-16 16:30N 39°52' W 075°13'0 0.1
2017-Nov-16 16:01N 39°52' W 075°13'0 0.0
2017-Nov-16 15:30N 39°52' W 075°13'0 0.0
2017-Nov-16 15:00N 39°52' W 075°13'0 0.0
2017-Nov-16 14:30N 39°52' W 075°13'0 0.0
2017-Nov-16 14:00N 39°52' W 075°13'0 0.0
2017-Nov-16 13:30N 39°52' W 075°13'0 0.0
2017-Nov-16 13:01N 39°52' W 075°13'0 0.0
2017-Nov-16 12:30N 39°52' W 075°13'1 1.6
2017-Nov-16 12:00N 39°52' W 075°14'4 8.8
2017-Nov-16 11:31N 39°51' W 075°19'4 8.1
2017-Nov-16 11:00N 39°49' W 075°24'0 0.8
2017-Nov-16 10:30N 39°49' W 075°24'0 0.0
2017-Nov-16 10:00N 39°49' W 075°24'0 0.0
2017-Nov-16 09:29N 39°49' W 075°24'0 0.0
2017-Nov-16 08:59N 39°49' W 075°24'0 0.0
2017-Nov-16 08:29N 39°49' W 075°24'0 0.0
2017-Nov-16 07:59N 39°49' W 075°24'0 0.0
2017-Nov-16 07:29N 39°49' W 075°24'0 0.0
2017-Nov-16 06:59N 39°49' W 075°24'0 0.0
2017-Nov-16 06:29N 39°49' W 075°24'0 0.0
2017-Nov-16 05:59N 39°49' W 075°24'0 0.0
2017-Nov-16 05:29N 39°49' W 075°24'0 0.0
2017-Nov-16 04:59N 39°49' W 075°24'0 0.0
2017-Nov-16 04:29N 39°49' W 075°24'0 0.0
2017-Nov-16 03:56N 39°49' W 075°24'0 0.0
2017-Nov-16 03:29N 39°49' W 075°24'0 0.0
2017-Nov-16 02:59N 39°49' W 075°24'0 0.0
2017-Nov-16 02:29N 39°49' W 075°24'0 0.0
2017-Nov-16 01:59N 39°49' W 075°24'0 0.0
2017-Nov-16 01:23N 39°49' W 075°24'0 0.0
2017-Nov-16 00:59N 39°49' W 075°24'0 0.0
2017-Nov-16 00:26N 39°49' W 075°24'0 0.0
2017-Nov-15 23:59N 39°49' W 075°24'0 0.0
2017-Nov-15 23:29N 39°49' W 075°24'0 0.0
2017-Nov-15 22:56N 39°49' W 075°24'0 0.0
2017-Nov-15 22:31N 39°49' W 075°24'0 0.0
2017-Nov-15 22:00N 39°49' W 075°24'1 1.4
2017-Nov-15 21:30N 39°48' W 075°25'0 0.9
2017-Nov-15 21:00N 39°48' W 075°26'2 4.5
2017-Nov-15 20:30N 39°49' W 075°23'4 7.7
2017-Nov-15 20:00N 39°51' W 075°18'4 7.9
2017-Nov-15 19:30N 39°52' W 075°13'4 8.1
2017-Nov-15 19:00N 39°53' W 075°08'2 3.9
2017-Nov-15 18:30N 39°55' W 075°08'0 0.1
2017-Nov-15 17:59N 39°55' W 075°08'0 0.2
2017-Nov-15 17:29N 39°55' W 075°08'0 0.2
2017-Nov-15 16:59N 39°55' W 075°08'0 0.1
2017-Nov-15 16:29N 39°55' W 075°08'0 0.0
2017-Nov-15 15:59N 39°55' W 075°08'0 0.0
2017-Nov-15 15:29N 39°55' W 075°08'0 0.0
2017-Nov-15 14:59N 39°55' W 075°08'0 0.0
2017-Nov-15 14:29N 39°55' W 075°08'0 0.0
2017-Nov-15 13:59N 39°55' W 075°08'0 0.0
2017-Nov-15 13:29N 39°55' W 075°08'0 0.0
2017-Nov-15 12:59N 39°55' W 075°08'0 0.0
2017-Nov-15 12:29N 39°55' W 075°08'0 0.2
2017-Nov-15 11:59N 39°55' W 075°08'0 0.2
2017-Nov-15 11:29N 39°55' W 075°08'0 0.1
2017-Nov-15 10:59N 39°55' W 075°08'0 0.0
2017-Nov-15 10:29N 39°55' W 075°08'0 0.0
2017-Nov-15 09:59N 39°55' W 075°08'0 0.0
2017-Nov-15 09:26N 39°55' W 075°08'0 0.0
2017-Nov-15 08:59N 39°55' W 075°08'0 0.0
2017-Nov-15 08:29N 39°55' W 075°08'0 0.0
2017-Nov-15 07:59N 39°55' W 075°08'0 0.0
2017-Nov-15 07:26N 39°55' W 075°08'0 0.0
2017-Nov-15 06:59N 39°55' W 075°08'0 0.0
2017-Nov-15 06:29N 39°55' W 075°08'0 0.0
2017-Nov-15 05:59N 39°55' W 075°08'0 0.0
2017-Nov-15 05:29N 39°55' W 075°08'0 0.2
2017-Nov-15 04:59N 39°55' W 075°08'0 0.2
2017-Nov-15 04:29N 39°55' W 075°08'0 0.0
2017-Nov-15 03:59N 39°55' W 075°08'0 0.0
2017-Nov-15 03:29N 39°55' W 075°08'0 0.0
2017-Nov-15 02:59N 39°55' W 075°08'0 0.0
2017-Nov-15 02:29N 39°55' W 075°08'0 0.0
2017-Nov-15 01:59N 39°55' W 075°08'0 0.0
2017-Nov-15 01:29N 39°55' W 075°08'0 0.0
2017-Nov-15 00:59N 39°55' W 075°08'0 0.0
2017-Nov-15 00:29N 39°55' W 075°08'0 0.0
2017-Nov-14 23:59N 39°55' W 075°08'0 0.3
2017-Nov-14 23:29N 39°55' W 075°08'0 0.2
2017-Nov-14 22:59N 39°55' W 075°08'0 0.1
2017-Nov-14 22:29N 39°55' W 075°08'0 0.0
2017-Nov-14 21:59N 39°55' W 075°08'0 0.0
2017-Nov-14 21:29N 39°55' W 075°08'0 0.0
2017-Nov-14 20:59N 39°55' W 075°08'0 0.0
2017-Nov-14 20:26N 39°55' W 075°08'0 0.0
2017-Nov-14 19:59N 39°55' W 075°08'0 0.0
2017-Nov-14 19:29N 39°55' W 075°08'0 0.0
2017-Nov-14 18:59N 39°55' W 075°08'0 0.0
2017-Nov-14 18:26N 39°55' W 075°08'0 0.0
2017-Nov-14 17:59N 39°55' W 075°08'0 0.0
2017-Nov-14 17:28N 39°55' W 075°08'0 0.0
2017-Nov-14 16:58N 39°55' W 075°08'0 0.3
2017-Nov-14 16:28N 39°55' W 075°08'0 0.2
2017-Nov-14 15:58N 39°55' W 075°08'0 0.0
2017-Nov-14 15:28N 39°55' W 075°08'0 0.0
2017-Nov-14 14:59N 39°55' W 075°08'0 0.0
2017-Nov-14 14:28N 39°55' W 075°08'0 0.0
2017-Nov-14 13:56N 39°55' W 075°08'0 0.0
2017-Nov-14 13:29N 39°55' W 075°08'0 0.0
2017-Nov-14 12:59N 39°55' W 075°08'0 0.0
2017-Nov-14 12:28N 39°55' W 075°08'0 0.0
2017-Nov-14 11:58N 39°55' W 075°08'0 0.1
2017-Nov-14 11:29N 39°55' W 075°08'0 0.4
2017-Nov-14 10:59N 39°55' W 075°08'0 0.1
2017-Nov-14 10:29N 39°55' W 075°08'0 0.0
2017-Nov-14 09:59N 39°55' W 075°08'0 0.0
2017-Nov-14 09:29N 39°55' W 075°08'0 0.0
2017-Nov-14 08:58N 39°55' W 075°08'0 0.0
2017-Nov-14 08:28N 39°55' W 075°08'0 0.0
2017-Nov-14 07:58N 39°55' W 075°08'0 0.0
2017-Nov-14 07:28N 39°55' W 075°08'0 0.0
2017-Nov-14 06:58N 39°55' W 075°08'0 0.0
2017-Nov-14 06:29N 39°55' W 075°08'0 0.0
2017-Nov-14 05:59N 39°55' W 075°08'0 0.0
2017-Nov-14 05:29N 39°55' W 075°08'0 0.0
2017-Nov-14 04:59N 39°55' W 075°08'0 0.1
2017-Nov-14 04:29N 39°55' W 075°08'0 0.3
2017-Nov-14 03:59N 39°55' W 075°08'0 0.1
2017-Nov-14 03:29N 39°55' W 075°08'0 0.0
2017-Nov-14 02:59N 39°55' W 075°08'0 0.0
2017-Nov-14 02:29N 39°55' W 075°08'0 0.0
2017-Nov-14 01:59N 39°55' W 075°08'0 0.0
2017-Nov-14 01:29N 39°55' W 075°08'0 0.0
2017-Nov-14 00:59N 39°55' W 075°08'0 0.0
2017-Nov-14 00:28N 39°55' W 075°08'0 0.0
2017-Nov-13 23:59N 39°55' W 075°08'0 0.0
2017-Nov-13 23:29N 39°55' W 075°08'0 0.1
2017-Nov-13 22:58N 39°55' W 075°08'0 0.4
2017-Nov-13 22:29N 39°55' W 075°08'0 0.1
2017-Nov-13 21:58N 39°55' W 075°08'14 0.7
2017-Nov-13 02:00N 39°49' W 075°24'0 0.0
2017-Nov-13 01:30N 39°49' W 075°24'0 0.0
2017-Nov-13 01:00N 39°49' W 075°24'0 0.0
2017-Nov-13 00:30N 39°49' W 075°24'0 0.0
2017-Nov-13 00:00N 39°49' W 075°24'0 0.0
2017-Nov-12 23:27N 39°49' W 075°24'0 0.0
2017-Nov-12 22:57N 39°49' W 075°24'0 0.0
2017-Nov-12 22:30N 39°49' W 075°24'0 0.0
2017-Nov-12 22:00N 39°49' W 075°24'0 0.0
2017-Nov-12 21:31N 39°49' W 075°24'1 1.5
2017-Nov-12 21:00N 39°49' W 075°23'2 3.2
2017-Nov-12 20:31N 39°48' W 075°25'3 6.7
2017-Nov-12 20:00N 39°46' W 075°29'4 8.1
2017-Nov-12 19:31N 39°42' W 075°31'4 7.9
2017-Nov-12 19:01N 39°39' W 075°33'3 6.6
2017-Nov-12 18:31N 39°36' W 075°34'3 5.6
2017-Nov-12 18:01N 39°33' W 075°36'4 9.0
2017-Nov-12 17:30N 39°33' W 075°42'4 8.7
2017-Nov-12 17:00N 39°32' W 075°47'4 7.5
2017-Nov-12 16:31N 39°32' W 075°52'4 7.7
2017-Nov-12 16:01N 39°29' W 075°56'4 7.7
2017-Nov-12 15:30N 39°27' W 075°60'7 7.3
2017-Nov-12 14:30N 39°22' W 076°07'4 7.1
2017-Nov-12 13:59N 39°20' W 076°11'22 6.7
2017-Nov-12 10:41N 39°00' W 076°23'106 2.8
2017-Nov-10 21:37N 37°14' W 076°22'3 8.7
2017-Nov-10 21:20N 37°14' W 076°19'3 8.7
2017-Nov-10 21:00N 37°12' W 076°16'4 8.4
2017-Nov-10 20:30N 37°09' W 076°12'119 9.3
2017-Nov-10 07:41N 39°08' W 076°19'4 9.4
2017-Nov-10 07:13N 39°12' W 076°16'2 9.2
2017-Nov-10 07:00N 39°14' W 076°15'4 8.8
2017-Nov-10 06:30N 39°18' W 076°14'4 7.7
2017-Nov-10 05:59N 39°21' W 076°10'3 6.0
2017-Nov-10 05:30N 39°22' W 076°07'1 0.2
2017-Nov-10 02:19N 39°23' W 076°07'0 0.1
2017-Nov-10 01:58N 39°23' W 076°07'0 0.2
2017-Nov-10 01:28N 39°23' W 076°07'0 0.2
2017-Nov-09 23:46N 39°23' W 076°07'1 4.7
2017-Nov-09 23:30N 39°23' W 076°05'5 9.4
2017-Nov-09 23:00N 39°26' W 076°00'510.1
2017-Nov-09 22:30N 39°30' W 075°56'510.2
2017-Nov-09 22:00N 39°32' W 075°50'4 8.7
2017-Nov-09 21:30N 39°32' W 075°44'510.5
2017-Nov-09 21:00N 39°33' W 075°38'4 7.3
2017-Nov-09 20:31N 39°33' W 075°33'0 0.1
2017-Nov-09 20:00N 39°33' W 075°33'0 0.1
2017-Nov-09 19:30N 39°33' W 075°33'0 0.0
2017-Nov-09 18:58N 39°33' W 075°33'0 0.0
2017-Nov-09 18:28N 39°33' W 075°33'0 0.0
2017-Nov-09 17:58N 39°33' W 075°33'0 0.0
2017-Nov-09 17:28N 39°33' W 075°33'0 0.0
2017-Nov-09 16:58N 39°33' W 075°33'0 0.0
2017-Nov-09 16:28N 39°33' W 075°33'0 0.4
2017-Nov-09 15:58N 39°33' W 075°33'0 0.1
2017-Nov-09 15:28N 39°33' W 075°33'0 0.0
2017-Nov-09 14:58N 39°33' W 075°33'0 0.0
2017-Nov-09 14:28N 39°33' W 075°33'0 0.0
2017-Nov-09 13:58N 39°33' W 075°33'0 0.0
2017-Nov-09 13:28N 39°33' W 075°33'0 0.0
2017-Nov-09 12:58N 39°33' W 075°33'0 0.0
2017-Nov-09 12:28N 39°33' W 075°33'0 0.0
2017-Nov-09 11:58N 39°33' W 075°33'0 0.0
2017-Nov-09 11:28N 39°33' W 075°33'0 0.0
2017-Nov-09 10:58N 39°33' W 075°33'0 0.0
2017-Nov-09 10:28N 39°33' W 075°33'0 0.2
2017-Nov-09 09:58N 39°33' W 075°33'0 0.3
2017-Nov-09 09:28N 39°33' W 075°33'0 0.1
2017-Nov-09 08:58N 39°33' W 075°33'0 0.0
2017-Nov-09 08:28N 39°33' W 075°33'0 0.0
2017-Nov-09 07:58N 39°33' W 075°33'0 0.0
2017-Nov-09 07:28N 39°33' W 075°33'0 0.0
2017-Nov-09 06:58N 39°33' W 075°33'0 0.0
2017-Nov-09 06:28N 39°33' W 075°33'0 0.0
2017-Nov-09 06:00N 39°33' W 075°33'0 0.5
2017-Nov-09 05:30N 39°33' W 075°33'1 1.2
2017-Nov-09 05:00N 39°34' W 075°33'0 0.0
2017-Nov-09 04:30N 39°34' W 075°33'0 0.0
2017-Nov-09 04:00N 39°34' W 075°33'0 0.0
2017-Nov-09 03:30N 39°34' W 075°33'0 0.0
2017-Nov-09 03:00N 39°34' W 075°33'0 0.0
2017-Nov-09 02:30N 39°34' W 075°33'0 0.0
2017-Nov-09 02:00N 39°34' W 075°33'0 0.0
2017-Nov-09 01:30N 39°34' W 075°33'0 0.0
2017-Nov-09 01:00N 39°34' W 075°33'0 0.0
2017-Nov-09 00:30N 39°34' W 075°33'0 0.0
2017-Nov-09 00:00N 39°34' W 075°33'0 0.0
2017-Nov-08 23:30N 39°34' W 075°33'0 0.0
2017-Nov-08 23:00N 39°34' W 075°33'1 1.3
2017-Nov-08 22:30N 39°34' W 075°33'4 7.9
2017-Nov-08 22:00N 39°37' W 075°35'4 8.5
2017-Nov-08 21:30N 39°41' W 075°31'4 7.9
2017-Nov-08 21:00N 39°44' W 075°30'3 5.3
2017-Nov-08 20:30N 39°47' W 075°28'3 6.9
2017-Nov-08 20:00N 39°49' W 075°24'0 0.3
2017-Nov-08 19:30N 39°49' W 075°24'0 0.9
2017-Nov-08 19:00N 39°49' W 075°24'510.2
2017-Nov-08 18:30N 39°51' W 075°18'510.1
2017-Nov-08 18:00N 39°53' W 075°12'1 1.1
2017-Nov-08 17:30N 39°53' W 075°12'0 0.0
2017-Nov-08 17:00N 39°53' W 075°12'0 0.0
2017-Nov-08 16:30N 39°53' W 075°12'0 0.0
2017-Nov-08 16:00N 39°53' W 075°12'0 0.1
2017-Nov-08 15:30N 39°53' W 075°12'0 0.0
2017-Nov-08 15:01N 39°53' W 075°12'0 0.0
2017-Nov-08 14:30N 39°53' W 075°12'0 0.0
2017-Nov-08 14:01N 39°53' W 075°12'0 0.0
2017-Nov-08 13:31N 39°53' W 075°12'0 0.0
2017-Nov-08 13:01N 39°53' W 075°12'0 0.0
2017-Nov-08 12:31N 39°53' W 075°12'0 0.0
2017-Nov-08 12:00N 39°53' W 075°12'0 0.1
2017-Nov-08 11:30N 39°53' W 075°12'0 0.0
2017-Nov-08 11:00N 39°53' W 075°12'0 0.0
2017-Nov-08 10:30N 39°53' W 075°12'0 0.0
2017-Nov-08 10:00N 39°53' W 075°12'0 0.0
2017-Nov-08 09:30N 39°53' W 075°12'0 0.0
2017-Nov-08 09:00N 39°53' W 075°12'0 0.0
2017-Nov-08 08:30N 39°53' W 075°12'0 0.0
2017-Nov-08 08:00N 39°53' W 075°12'2 4.7
2017-Nov-08 07:30N 39°52' W 075°14'510.3
2017-Nov-08 07:00N 39°51' W 075°20'4 7.5
2017-Nov-08 06:30N 39°49' W 075°24'0 0.0
2017-Nov-08 06:00N 39°49' W 075°24'0 0.1
2017-Nov-08 05:30N 39°49' W 075°24'2 3.5
2017-Nov-08 05:00N 39°50' W 075°22'  

Dump ship's entire track history